createdAt,value
2019-01-17T00:00:37.252Z,6.40
2019-01-17T00:02:42.513Z,6.40
2019-01-17T00:04:59.946Z,6.50
2019-01-17T00:07:14.154Z,6.50
2019-01-17T00:09:19.415Z,6.60
2019-01-17T00:11:24.633Z,6.60
2019-01-17T00:13:48.185Z,6.70
2019-01-17T00:15:56.178Z,6.80
2019-01-17T00:18:01.491Z,6.80
2019-01-17T00:20:15.629Z,6.90
2019-01-17T00:22:23.794Z,7.10
2019-01-17T00:24:31.578Z,7.10
2019-01-17T00:26:36.824Z,7.00
2019-01-17T00:28:50.854Z,7.10
2019-01-17T00:30:56.093Z,7.10
2019-01-17T00:33:06.911Z,7.20
2019-01-17T00:35:12.172Z,7.30
2019-01-17T00:37:26.137Z,7.10
2019-01-17T00:39:40.331Z,6.80
2019-01-17T00:42:00.507Z,6.60
2019-01-17T00:44:14.797Z,6.70
2019-01-17T00:46:22.457Z,6.40
2019-01-17T00:48:30.473Z,6.30
2019-01-17T00:50:38.471Z,6.20
2019-01-17T00:52:58.602Z,6.60
2019-01-17T00:55:19.883Z,6.80
2019-01-17T00:57:27.952Z,6.70
2019-01-17T00:59:33.264Z,6.50
2019-01-17T01:01:47.614Z,6.60
2019-01-17T01:03:55.546Z,6.80
2019-01-17T01:06:18.888Z,7.10
2019-01-17T01:08:26.732Z,7.30
2019-01-17T01:10:32.014Z,7.20
2019-01-17T01:12:46.106Z,7.10
2019-01-17T01:14:57.730Z,7.40
2019-01-17T01:17:11.751Z,7.50
2019-01-17T01:19:19.546Z,7.60
2019-01-17T01:21:42.293Z,7.60
2019-01-17T01:23:50.518Z,7.80
2019-01-17T01:25:55.813Z,7.70
2019-01-17T01:28:16.949Z,7.50
2019-01-17T01:30:34.306Z,7.50
2019-01-17T01:32:39.550Z,7.30
2019-01-17T01:35:03.039Z,7.30
2019-01-17T01:37:24.631Z,7.40
2019-01-17T01:39:29.863Z,7.40
2019-01-17T01:41:43.650Z,7.30
2019-01-17T01:43:57.607Z,7.20
2019-01-17T01:46:02.863Z,7.50
2019-01-17T01:48:17.187Z,7.50
2019-01-17T01:50:38.334Z,7.80
2019-01-17T01:52:43.632Z,7.50
2019-01-17T01:54:47.314Z,7.60
2019-01-17T01:56:50.981Z,7.70
2019-01-17T01:58:54.662Z,7.60
2019-01-17T02:00:58.327Z,7.80
2019-01-17T02:03:02.022Z,8.00
2019-01-17T02:05:05.885Z,7.90
2019-01-17T02:07:09.559Z,7.90
2019-01-17T02:09:13.259Z,8.00
2019-01-17T02:11:16.924Z,8.20
2019-01-17T02:13:20.622Z,8.10
2019-01-17T02:15:24.276Z,8.00
2019-01-17T02:17:28.146Z,7.90
2019-01-17T02:19:31.850Z,7.70
2019-01-17T02:21:35.506Z,8.00
2019-01-17T02:23:39.275Z,8.20
2019-01-17T02:25:42.926Z,8.40
2019-01-17T02:27:46.666Z,8.40
2019-01-17T02:29:50.352Z,8.50
2019-01-17T02:31:54.015Z,8.60
2019-01-17T02:33:57.707Z,8.70
2019-01-17T02:36:01.368Z,8.70
2019-01-17T02:38:05.045Z,8.70
2019-01-17T02:40:10.927Z,8.70
2019-01-17T02:42:14.577Z,8.40
2019-01-17T02:44:18.262Z,8.50
2019-01-17T02:46:21.979Z,8.60
2019-01-17T02:48:25.636Z,8.70
2019-01-17T02:50:29.326Z,8.80
2019-01-17T02:52:32.994Z,8.50
2019-01-17T02:54:36.643Z,8.40
2019-01-17T02:56:40.380Z,8.00
2019-01-17T02:58:44.041Z,8.10
2019-01-17T03:00:47.723Z,8.40
2019-01-17T03:02:51.410Z,8.40
2019-01-17T03:04:55.098Z,8.60
2019-01-17T03:06:58.767Z,8.60
2019-01-17T03:09:02.435Z,8.80
2019-01-17T03:11:06.126Z,8.70
2019-01-17T03:13:09.886Z,8.80
2019-01-17T03:15:13.779Z,8.90
2019-01-17T03:17:17.452Z,9.00
2019-01-17T03:19:21.108Z,9.00
2019-01-17T03:21:24.831Z,8.90
2019-01-17T03:23:28.500Z,9.00
2019-01-17T03:25:32.190Z,9.00
2019-01-17T03:27:35.857Z,8.80
2019-01-17T03:29:39.516Z,8.90
2019-01-17T03:31:43.214Z,8.90
2019-01-17T03:33:46.880Z,9.00
2019-01-17T03:35:50.673Z,9.20
2019-01-17T03:37:54.328Z,9.20
2019-01-17T03:39:57.988Z,9.10
2019-01-17T03:42:01.660Z,9.10
2019-01-17T03:44:05.609Z,9.30
2019-01-17T03:46:09.370Z,9.20
2019-01-17T03:48:13.084Z,9.30
2019-01-17T03:50:16.751Z,9.30
2019-01-17T03:52:20.461Z,9.30
2019-01-17T03:54:24.123Z,9.10
2019-01-17T03:56:27.809Z,9.10
2019-01-17T03:58:31.477Z,9.20
2019-01-17T04:00:35.147Z,9.00
2019-01-17T04:02:38.841Z,9.00
2019-01-17T04:04:42.524Z,9.00
2019-01-17T04:06:46.190Z,9.00
2019-01-17T04:08:49.892Z,8.60
2019-01-17T04:10:53.618Z,8.70
2019-01-17T04:12:57.300Z,8.80
2019-01-17T04:15:00.973Z,8.90
2019-01-17T04:17:04.672Z,8.80
2019-01-17T04:19:08.343Z,8.90
2019-01-17T04:21:12.013Z,9.00
2019-01-17T04:23:15.694Z,8.60
2019-01-17T04:25:19.368Z,8.40
2019-01-17T04:27:23.040Z,8.50
2019-01-17T04:29:26.746Z,8.00
2019-01-17T04:31:30.407Z,8.30
2019-01-17T04:33:34.155Z,8.20
2019-01-17T04:35:37.814Z,8.40
2019-01-17T04:37:41.474Z,8.50
2019-01-17T04:39:45.264Z,8.50
2019-01-17T04:41:48.938Z,8.30
2019-01-17T04:43:52.635Z,8.40
2019-01-17T04:45:56.343Z,8.50
2019-01-17T04:48:00.044Z,8.50
2019-01-17T04:50:04.723Z,8.80
2019-01-17T04:52:08.396Z,8.80
2019-01-17T04:54:12.104Z,8.80
2019-01-17T04:56:15.775Z,8.70
2019-01-17T04:58:19.635Z,8.60
2019-01-17T05:00:23.421Z,8.70
2019-01-17T05:02:27.196Z,9.00
2019-01-17T05:04:30.899Z,8.80
2019-01-17T05:06:34.565Z,9.00
2019-01-17T05:08:38.252Z,9.00
2019-01-17T05:10:41.956Z,8.70
2019-01-17T05:12:45.618Z,8.90
2019-01-17T05:14:49.292Z,8.90
2019-01-17T05:16:54.338Z,9.00
2019-01-17T05:18:58.229Z,9.00
2019-01-17T05:21:01.955Z,8.90
2019-01-17T05:23:06.873Z,8.70
2019-01-17T05:25:12.762Z,8.60
2019-01-17T05:27:16.366Z,8.30
2019-01-17T05:29:20.040Z,7.70
2019-01-17T05:31:23.854Z,7.80
2019-01-17T05:33:27.512Z,7.90
2019-01-17T05:35:31.207Z,7.80
2019-01-17T05:37:35.020Z,8.10
2019-01-17T05:39:38.754Z,8.10
2019-01-17T05:41:42.443Z,8.10
2019-01-17T05:43:46.128Z,8.30
2019-01-17T05:45:49.816Z,8.70
2019-01-17T05:47:53.474Z,8.70
2019-01-17T05:49:57.183Z,8.80
2019-01-17T05:52:00.905Z,9.00
2019-01-17T05:54:04.577Z,9.20
2019-01-17T05:56:08.284Z,9.20
2019-01-17T05:58:11.948Z,9.20
2019-01-17T06:00:20.418Z,9.20
2019-01-17T06:02:24.147Z,9.30
2019-01-17T06:04:27.809Z,9.30
2019-01-17T06:06:33.172Z,9.40
2019-01-17T06:08:37.031Z,9.40
2019-01-17T06:10:40.716Z,9.40
2019-01-17T06:12:44.440Z,9.40
2019-01-17T06:14:48.115Z,9.30
2019-01-17T06:16:51.771Z,9.10
2019-01-17T06:18:55.475Z,9.10
2019-01-17T06:20:59.150Z,8.90
2019-01-17T06:23:02.838Z,9.10
2019-01-17T06:25:06.612Z,9.20
2019-01-17T06:27:10.304Z,9.30
2019-01-17T06:29:14.003Z,9.20
2019-01-17T06:31:17.698Z,9.40
2019-01-17T06:33:21.385Z,9.20
2019-01-17T06:35:25.045Z,9.30
2019-01-17T06:37:28.755Z,9.10
2019-01-17T06:39:32.467Z,9.20
2019-01-17T06:41:36.155Z,9.30
2019-01-17T06:43:39.843Z,9.20
2019-01-17T06:45:43.592Z,9.00
2019-01-17T06:47:47.392Z,8.90
2019-01-17T06:49:51.227Z,8.90
2019-01-17T06:51:55.076Z,8.90
2019-01-17T06:53:58.855Z,9.20
2019-01-17T06:56:02.524Z,9.10
2019-01-17T06:58:06.229Z,9.00
2019-01-17T07:00:12.931Z,8.80
2019-01-17T07:02:16.582Z,8.80
2019-01-17T07:04:20.272Z,8.90
2019-01-17T07:06:23.947Z,9.10
2019-01-17T07:08:27.613Z,9.20
2019-01-17T07:10:31.321Z,9.30
2019-01-17T07:12:34.995Z,9.20
2019-01-17T07:14:38.694Z,8.90
2019-01-17T07:16:42.351Z,9.00
2019-01-17T07:18:46.016Z,9.10
2019-01-17T07:20:49.710Z,9.20
2019-01-17T07:22:53.378Z,9.20
2019-01-17T07:24:57.074Z,9.20
2019-01-17T07:27:00.739Z,9.30
2019-01-17T07:29:04.506Z,9.30
2019-01-17T07:31:08.214Z,9.30
2019-01-17T07:33:11.897Z,9.40
2019-01-17T07:35:15.599Z,9.40
2019-01-17T07:37:19.265Z,9.50
2019-01-17T07:39:22.931Z,9.60
2019-01-17T07:41:26.630Z,9.70
2019-01-17T07:43:30.304Z,9.80
2019-01-17T07:45:33.986Z,9.90
2019-01-17T07:47:37.668Z,10.00
2019-01-17T07:49:41.436Z,10.00
2019-01-17T07:51:45.130Z,10.00
2019-01-17T07:53:48.792Z,9.80
2019-01-17T07:55:52.473Z,9.70
2019-01-17T07:57:56.170Z,9.90
2019-01-17T07:59:59.842Z,9.80
2019-01-17T08:02:03.538Z,9.90
2019-01-17T08:04:07.205Z,9.90
2019-01-17T08:06:11.074Z,10.00
2019-01-17T08:08:14.766Z,10.00
2019-01-17T08:10:19.934Z,9.60
2019-01-17T08:12:23.628Z,9.70
2019-01-17T08:14:27.291Z,9.60
2019-01-17T08:16:30.968Z,9.50
2019-01-17T08:18:34.619Z,9.70
2019-01-17T08:20:38.411Z,9.50
2019-01-17T08:22:42.146Z,9.40
2019-01-17T08:24:45.826Z,9.50
2019-01-17T08:26:49.497Z,9.30
2019-01-17T08:28:55.145Z,9.30
2019-01-17T08:30:58.584Z,9.40
2019-01-17T08:33:02.310Z,9.60
2019-01-17T08:35:06.666Z,9.60
2019-01-17T08:37:10.350Z,9.50
2019-01-17T08:39:14.046Z,9.70
2019-01-17T08:41:17.728Z,9.50
2019-01-17T08:43:21.410Z,9.40
2019-01-17T08:45:25.066Z,9.50
2019-01-17T08:47:28.748Z,9.40
2019-01-17T08:49:32.435Z,9.20
2019-01-17T08:51:36.289Z,9.20
2019-01-17T08:53:40.017Z,9.40
2019-01-17T08:55:43.699Z,9.50
2019-01-17T08:57:47.363Z,9.30
2019-01-17T08:59:51.057Z,9.30
2019-01-17T09:01:54.707Z,9.30
2019-01-17T09:03:58.432Z,9.70
2019-01-17T09:06:02.132Z,9.70
2019-01-17T09:08:06.159Z,9.60
2019-01-17T09:10:21.814Z,9.20
2019-01-17T09:12:25.502Z,9.10
2019-01-17T09:14:29.226Z,9.50
2019-01-17T09:16:32.920Z,9.90
2019-01-17T09:18:36.643Z,10.10
2019-01-17T09:20:40.473Z,10.10
2019-01-17T09:22:44.139Z,10.20
2019-01-17T09:24:47.951Z,10.10
2019-01-17T09:26:51.624Z,10.00
2019-01-17T09:28:55.270Z,9.90
2019-01-17T09:30:58.959Z,9.30
2019-01-17T09:33:02.635Z,9.60
2019-01-17T09:35:09.426Z,10.00
2019-01-17T09:37:13.101Z,10.20
2019-01-17T09:39:16.761Z,10.20
2019-01-17T09:41:20.456Z,10.20
2019-01-17T09:43:24.313Z,10.60
2019-01-17T09:45:28.002Z,10.90
2019-01-17T09:47:31.670Z,11.20
2019-01-17T09:49:35.343Z,11.20
2019-01-17T09:51:39.043Z,11.30
2019-01-17T09:53:42.716Z,11.20
2019-01-17T09:55:46.400Z,11.40
2019-01-17T09:57:50.074Z,11.50
2019-01-17T09:59:53.766Z,11.60
2019-01-17T10:01:57.457Z,11.60
2019-01-17T10:04:01.228Z,11.60
2019-01-17T10:06:05.003Z,11.40
2019-01-17T10:08:08.691Z,10.90
2019-01-17T10:10:15.025Z,11.00
2019-01-17T10:12:18.722Z,11.10
2019-01-17T10:14:22.384Z,10.90
2019-01-17T10:16:29.007Z,10.80
2019-01-17T10:18:44.111Z,10.30
2019-01-17T10:21:09.882Z,10.40
2019-01-17T10:23:36.176Z,10.10
2019-01-17T10:25:48.757Z,10.00
2019-01-17T10:27:58.291Z,10.00
2019-01-17T10:30:35.245Z,10.00
2019-01-17T10:32:47.957Z,10.30
2019-01-17T10:35:00.395Z,10.50
2019-01-17T10:37:26.556Z,10.20
2019-01-17T10:39:55.891Z,10.40
2019-01-17T10:42:21.947Z,10.70
2019-01-17T10:44:43.379Z,10.60
2019-01-17T10:47:06.117Z,10.50
2019-01-17T10:49:33.563Z,10.40
2019-01-17T10:52:07.080Z,10.30
2019-01-17T10:54:13.741Z,10.10
2019-01-17T10:56:41.038Z,10.10
2019-01-17T10:58:46.473Z,9.80
2019-01-17T11:00:55.794Z,10.00
2019-01-17T11:03:17.092Z,9.80
2019-01-17T11:05:38.600Z,9.90
2019-01-17T11:08:14.089Z,10.10
2019-01-17T11:10:26.221Z,10.00
2019-01-17T11:12:35.581Z,9.50
2019-01-17T11:14:47.847Z,9.60
2019-01-17T11:16:59.949Z,9.50
2019-01-17T11:19:12.126Z,9.90
2019-01-17T11:21:30.272Z,10.40
2019-01-17T11:24:11.564Z,9.90
2019-01-17T11:26:36.057Z,9.70
2019-01-17T11:28:54.732Z,9.60
2019-01-17T11:31:27.339Z,9.60
2019-01-17T11:33:49.025Z,9.50
2019-01-17T11:36:04.239Z,9.30
2019-01-17T11:38:16.863Z,9.40
2019-01-17T11:40:34.530Z,9.80
2019-01-17T11:42:44.067Z,9.80
2019-01-17T11:44:56.850Z,10.20
2019-01-17T11:47:35.126Z,9.90
2019-01-17T11:49:44.542Z,10.40
2019-01-17T11:52:09.443Z,10.60
2019-01-17T11:54:21.987Z,10.60
2019-01-17T11:56:40.794Z,10.10
2019-01-17T11:59:11.863Z,10.30
2019-01-17T12:01:34.742Z,10.70
2019-01-17T12:03:59.187Z,10.70
2019-01-17T12:06:02.854Z,10.70
2019-01-17T12:08:06.582Z,10.70
2019-01-17T12:10:10.238Z,10.70
2019-01-17T12:12:15.506Z,10.90
2019-01-17T12:14:19.195Z,11.30
2019-01-17T12:16:22.957Z,11.10
2019-01-17T12:18:26.614Z,11.00
2019-01-17T12:20:30.300Z,10.90
2019-01-17T12:22:34.087Z,10.90
2019-01-17T12:24:37.751Z,11.20
2019-01-17T12:26:47.286Z,11.60
2019-01-17T12:28:46.807Z,11.70
2019-01-17T12:30:50.499Z,11.60
2019-01-17T12:32:54.196Z,11.60
2019-01-17T12:34:57.915Z,11.80
2019-01-17T12:37:01.580Z,11.70
2019-01-17T12:39:08.209Z,12.00
2019-01-17T12:41:11.878Z,12.20
2019-01-17T12:43:15.562Z,12.20
2019-01-17T12:45:19.234Z,11.70
2019-01-17T12:47:22.922Z,11.90
2019-01-17T12:49:26.582Z,11.80
2019-01-17T12:51:30.263Z,11.60
2019-01-17T12:53:33.947Z,11.50
2019-01-17T12:55:37.606Z,11.70
2019-01-17T12:57:41.280Z,11.70
2019-01-17T12:59:45.035Z,11.20
2019-01-17T13:01:48.693Z,11.50
2019-01-17T13:03:52.401Z,11.40
2019-01-17T13:05:56.059Z,11.50
2019-01-17T13:07:59.791Z,11.50
2019-01-17T13:10:04.452Z,11.70
2019-01-17T13:12:08.129Z,11.60
2019-01-17T13:14:11.809Z,11.40
2019-01-17T13:16:15.474Z,11.80
2019-01-17T13:18:19.159Z,11.90
2019-01-17T13:20:22.943Z,12.00
2019-01-17T13:22:26.623Z,11.80
2019-01-17T13:24:30.324Z,11.40
2019-01-17T13:26:33.985Z,11.40
2019-01-17T13:28:37.653Z,11.70
2019-01-17T13:30:41.369Z,11.50
2019-01-17T13:32:45.131Z,11.50
2019-01-17T13:34:48.851Z,11.70
2019-01-17T13:36:52.528Z,11.60
2019-01-17T13:38:56.185Z,11.50
2019-01-17T13:40:59.902Z,11.50
2019-01-17T13:43:03.588Z,11.10
2019-01-17T13:45:10.233Z,11.20
2019-01-17T13:47:13.900Z,11.50
2019-01-17T13:49:17.569Z,11.40
2019-01-17T13:51:21.255Z,11.60
2019-01-17T13:53:24.914Z,11.70
2019-01-17T13:55:28.594Z,12.00
2019-01-17T13:57:32.253Z,11.80
2019-01-17T13:59:38.232Z,12.10
2019-01-17T14:01:41.935Z,12.10
2019-01-17T14:03:45.602Z,12.30
2019-01-17T14:05:49.289Z,12.40
2019-01-17T14:07:53.512Z,12.30
2019-01-17T14:09:57.161Z,12.40
2019-01-17T14:12:00.861Z,12.50
2019-01-17T14:14:04.519Z,12.30
2019-01-17T14:16:08.231Z,12.20
2019-01-17T14:18:11.891Z,11.20
2019-01-17T14:20:15.615Z,11.00
2019-01-17T14:22:19.315Z,10.80
2019-01-17T14:24:22.976Z,10.90
2019-01-17T14:26:26.661Z,10.40
2019-01-17T14:28:30.331Z,10.40
2019-01-17T14:30:34.681Z,10.40
2019-01-17T14:32:38.362Z,10.50
2019-01-17T14:34:42.127Z,10.40
2019-01-17T14:36:45.889Z,10.00
2019-01-17T14:38:49.656Z,9.90
2019-01-17T14:40:53.371Z,9.80
2019-01-17T14:42:57.060Z,10.10
2019-01-17T14:45:00.716Z,10.40
2019-01-17T14:47:04.414Z,10.70
2019-01-17T14:49:08.082Z,10.70
2019-01-17T14:51:11.791Z,10.80
2019-01-17T14:53:15.612Z,10.80
2019-01-17T14:55:19.315Z,10.60
2019-01-17T14:57:23.017Z,10.30
2019-01-17T14:59:26.715Z,9.80
2019-01-17T15:01:30.475Z,9.60
2019-01-17T15:03:34.175Z,9.10
2019-01-17T15:05:37.815Z,8.70
2019-01-17T15:07:41.663Z,8.40
2019-01-17T15:09:45.406Z,8.40
2019-01-17T15:11:49.067Z,8.10
2019-01-17T15:13:52.866Z,8.10
2019-01-17T15:15:56.530Z,8.00
2019-01-17T15:18:00.236Z,8.00
2019-01-17T15:20:05.461Z,7.90
2019-01-17T15:22:09.111Z,8.10
2019-01-17T15:24:12.799Z,8.30
2019-01-17T15:26:16.470Z,8.50
2019-01-17T15:28:20.119Z,8.60
2019-01-17T15:30:25.403Z,8.60
2019-01-17T15:32:29.058Z,8.30
2019-01-17T15:34:32.774Z,8.10
2019-01-17T15:36:36.441Z,8.30
2019-01-17T15:38:40.095Z,8.20
2019-01-17T15:40:43.904Z,8.40
2019-01-17T15:42:47.566Z,8.70
2019-01-17T15:44:51.246Z,9.00
2019-01-17T15:46:54.959Z,8.90
2019-01-17T15:48:58.627Z,9.10
2019-01-17T15:51:02.321Z,9.30
2019-01-17T15:53:06.019Z,9.50
2019-01-17T15:55:12.480Z,9.40
2019-01-17T15:57:16.176Z,9.20
2019-01-17T15:59:23.217Z,9.20
2019-01-17T16:01:25.229Z,9.30
2019-01-17T16:03:28.894Z,9.30
2019-01-17T16:05:32.635Z,9.10
2019-01-17T16:07:36.282Z,9.10
2019-01-17T16:09:39.966Z,9.20
2019-01-17T16:11:43.653Z,9.10
2019-01-17T16:13:47.316Z,9.30
2019-01-17T16:15:52.002Z,9.50
2019-01-17T16:17:55.654Z,9.60
2019-01-17T16:19:59.316Z,9.70
2019-01-17T16:22:03.010Z,9.50
2019-01-17T16:24:06.682Z,9.60
2019-01-17T16:26:10.420Z,9.40
2019-01-17T16:28:14.179Z,9.30
2019-01-17T16:30:20.763Z,9.50
2019-01-17T16:32:24.470Z,9.60
2019-01-17T16:34:28.122Z,9.60
2019-01-17T16:36:31.822Z,9.60
2019-01-17T16:38:35.546Z,9.20
2019-01-17T16:40:39.210Z,9.30
2019-01-17T16:42:42.911Z,9.30
2019-01-17T16:44:46.590Z,9.00
2019-01-17T16:46:50.261Z,8.90
2019-01-17T16:48:53.927Z,8.70
2019-01-17T16:50:57.604Z,9.00
2019-01-17T16:53:01.296Z,9.20
2019-01-17T16:55:05.794Z,9.30
2019-01-17T16:57:09.491Z,9.50
2019-01-17T16:59:13.142Z,9.40
2019-01-17T17:01:16.806Z,9.40
2019-01-17T17:03:20.503Z,9.60
2019-01-17T17:05:24.173Z,9.80
2019-01-17T17:07:27.831Z,9.60
2019-01-17T17:09:31.575Z,9.50
2019-01-17T17:11:35.352Z,8.90
2019-01-17T17:13:39.055Z,8.40
2019-01-17T17:15:42.709Z,8.40
2019-01-17T17:17:46.385Z,8.90
2019-01-17T17:19:50.065Z,9.20
2019-01-17T17:21:53.731Z,9.50
2019-01-17T17:23:57.431Z,9.70
2019-01-17T17:26:01.130Z,9.60
2019-01-17T17:28:04.895Z,9.50
2019-01-17T17:30:11.558Z,9.40
2019-01-17T17:32:15.231Z,9.20
2019-01-17T17:34:18.916Z,9.40
2019-01-17T17:36:22.688Z,9.20
2019-01-17T17:38:26.358Z,9.30
2019-01-17T17:40:30.132Z,9.50
2019-01-17T17:42:33.790Z,9.50
2019-01-17T17:44:37.478Z,9.50
2019-01-17T17:46:41.139Z,9.60
2019-01-17T17:48:44.803Z,9.30
2019-01-17T17:50:48.543Z,9.30
2019-01-17T17:52:52.198Z,9.30
2019-01-17T17:54:56.016Z,8.90
2019-01-17T17:56:59.666Z,8.90
2019-01-17T17:59:03.377Z,9.20
2019-01-17T18:01:08.045Z,9.30
2019-01-17T18:03:11.691Z,9.10
2019-01-17T18:05:15.446Z,9.10
2019-01-17T18:07:19.106Z,9.00
2019-01-17T18:09:22.771Z,8.90
2019-01-17T18:11:26.468Z,8.60
2019-01-17T18:13:30.132Z,8.40
2019-01-17T18:15:34.106Z,8.50
2019-01-17T18:17:37.780Z,8.80
2019-01-17T18:19:41.449Z,8.70
2019-01-17T18:21:45.283Z,8.90
2019-01-17T18:23:48.937Z,8.60
2019-01-17T18:25:52.623Z,8.60
2019-01-17T18:27:56.306Z,8.50
2019-01-17T18:29:59.963Z,8.20
2019-01-17T18:32:04.151Z,8.20
2019-01-17T18:34:07.858Z,8.60
2019-01-17T18:36:11.632Z,8.50
2019-01-17T18:38:15.323Z,8.40
2019-01-17T18:40:20.091Z,8.70
2019-01-17T18:42:23.797Z,8.60
2019-01-17T18:44:27.454Z,8.70
2019-01-17T18:46:31.107Z,8.50
2019-01-17T18:48:34.802Z,8.90
2019-01-17T18:50:38.473Z,9.20
2019-01-17T18:52:42.155Z,8.00
2019-01-17T18:54:45.814Z,7.20
2019-01-17T18:56:49.506Z,6.80
2019-01-17T18:58:53.206Z,6.90
2019-01-17T19:00:56.968Z,6.70
2019-01-17T19:03:00.658Z,7.10
2019-01-17T19:05:05.550Z,7.30
2019-01-17T19:07:09.258Z,7.40
2019-01-17T19:09:12.916Z,7.90
2019-01-17T19:11:16.590Z,7.90
2019-01-17T19:13:20.286Z,7.70
2019-01-17T19:15:29.235Z,7.80
2019-01-17T19:17:32.984Z,7.90
2019-01-17T19:19:36.630Z,6.70
2019-01-17T19:21:40.299Z,6.80
2019-01-17T19:23:43.980Z,7.10
2019-01-17T19:25:47.653Z,7.10
2019-01-17T19:27:51.355Z,6.50
2019-01-17T19:29:55.040Z,6.50
2019-01-17T19:31:58.698Z,5.90
2019-01-17T19:34:02.393Z,5.40
2019-01-17T19:36:06.051Z,5.90
2019-01-17T19:38:09.717Z,5.50
2019-01-17T19:40:27.199Z,5.60
2019-01-17T19:42:30.868Z,5.60
2019-01-17T19:44:34.557Z,5.90
2019-01-17T19:46:38.290Z,6.60
2019-01-17T19:48:41.946Z,6.70
2019-01-17T19:50:45.642Z,7.00
2019-01-17T19:52:49.426Z,7.40
2019-01-17T19:54:53.140Z,7.60
2019-01-17T19:56:56.861Z,7.40
2019-01-17T19:59:00.522Z,7.30
2019-01-17T20:01:05.335Z,7.10
2019-01-17T20:03:08.999Z,7.10
2019-01-17T20:05:15.416Z,7.30
2019-01-17T20:07:19.063Z,7.90
2019-01-17T20:09:22.743Z,7.90
2019-01-17T20:11:26.462Z,7.80
2019-01-17T20:13:30.190Z,7.80
2019-01-17T20:15:33.897Z,7.80
2019-01-17T20:17:37.649Z,7.70
2019-01-17T20:19:41.336Z,7.00
2019-01-17T20:21:45.040Z,7.20
2019-01-17T20:23:48.801Z,7.00
2019-01-17T20:25:52.485Z,6.20
2019-01-17T20:27:56.130Z,6.20
2019-01-17T20:29:59.798Z,5.40
2019-01-17T20:32:03.531Z,5.60
2019-01-17T20:34:07.199Z,5.60
2019-01-17T20:36:10.883Z,6.10
2019-01-17T20:38:14.571Z,5.90
2019-01-17T20:40:20.343Z,6.00
2019-01-17T20:42:24.380Z,5.80
2019-01-17T20:44:28.041Z,5.70
2019-01-17T20:46:31.737Z,6.00
2019-01-17T20:48:35.406Z,6.60
2019-01-17T20:50:39.085Z,6.70
2019-01-17T20:52:42.767Z,5.70
2019-01-17T20:54:46.418Z,6.20
2019-01-17T20:56:50.101Z,6.10
2019-01-17T20:58:53.793Z,6.10
2019-01-17T21:01:05.906Z,5.60
2019-01-17T21:03:11.101Z,5.70
2019-01-17T21:05:15.545Z,6.00
2019-01-17T21:07:19.291Z,6.00
2019-01-17T21:09:23.059Z,6.10
2019-01-17T21:11:26.728Z,5.80
2019-01-17T21:13:30.518Z,5.90
2019-01-17T21:15:34.176Z,5.90
2019-01-17T21:17:37.896Z,6.10
2019-01-17T21:19:41.555Z,5.90
2019-01-17T21:21:45.216Z,5.70
2019-01-17T21:23:48.910Z,5.90
2019-01-17T21:25:52.576Z,6.20
2019-01-17T21:27:56.260Z,6.70
2019-01-17T21:29:59.924Z,6.90
2019-01-17T21:32:03.617Z,7.20
2019-01-17T21:34:07.330Z,7.60
2019-01-17T21:36:10.995Z,7.70
2019-01-17T21:38:14.700Z,8.00
2019-01-17T21:40:20.158Z,8.00
2019-01-17T21:42:23.872Z,7.80
2019-01-17T21:44:27.603Z,7.50
2019-01-17T21:46:31.291Z,7.50
2019-01-17T21:48:35.009Z,7.70
2019-01-17T21:50:38.715Z,7.60
2019-01-17T21:52:42.378Z,8.00
2019-01-17T21:54:46.139Z,8.20
2019-01-17T21:56:49.804Z,8.50
2019-01-17T21:58:56.057Z,8.60
2019-01-17T22:00:58.900Z,8.60
2019-01-17T22:03:02.572Z,8.60
2019-01-17T22:05:07.146Z,8.70
2019-01-17T22:07:10.814Z,8.80
2019-01-17T22:09:14.574Z,7.80
2019-01-17T22:11:18.242Z,6.30
2019-01-17T22:13:21.894Z,5.20
2019-01-17T22:15:26.597Z,4.00
2019-01-17T22:17:30.271Z,3.10
2019-01-17T22:19:33.930Z,3.10
2019-01-17T22:21:37.616Z,3.20
2019-01-17T22:23:41.262Z,3.70
2019-01-17T22:25:45.011Z,4.30
2019-01-17T22:27:50.500Z,3.60
2019-01-17T22:29:54.155Z,3.90
2019-01-17T22:31:57.867Z,3.70
2019-01-17T22:34:01.539Z,4.20
2019-01-17T22:36:05.225Z,4.40
2019-01-17T22:38:08.888Z,4.70
2019-01-17T22:40:17.237Z,4.90
2019-01-17T22:42:20.952Z,5.10
2019-01-17T22:44:24.799Z,4.80
2019-01-17T22:46:28.547Z,4.70
2019-01-17T22:48:32.226Z,4.80
2019-01-17T22:50:35.885Z,5.20
2019-01-17T22:52:39.578Z,4.60
2019-01-17T22:54:43.244Z,4.50
2019-01-17T22:56:46.919Z,4.30
2019-01-17T22:58:50.581Z,4.30
2019-01-17T23:00:57.191Z,4.40
2019-01-17T23:03:00.878Z,4.60
2019-01-17T23:05:04.931Z,4.80
2019-01-17T23:07:08.611Z,4.70
2019-01-17T23:09:12.266Z,5.20
2019-01-17T23:11:16.023Z,5.50
2019-01-17T23:13:19.722Z,5.90
2019-01-17T23:15:23.413Z,5.90
2019-01-17T23:17:27.071Z,6.20
2019-01-17T23:19:30.781Z,6.20
2019-01-17T23:21:34.435Z,6.30
2019-01-17T23:23:38.463Z,6.40
2019-01-17T23:25:42.136Z,6.60
2019-01-17T23:27:45.822Z,6.30
2019-01-17T23:29:49.520Z,6.20
2019-01-17T23:31:53.178Z,6.10
2019-01-17T23:33:56.861Z,6.00
2019-01-17T23:36:00.511Z,6.20
2019-01-17T23:38:04.192Z,5.90
2019-01-17T23:40:09.578Z,4.00
2019-01-17T23:42:13.254Z,3.60
2019-01-17T23:44:16.938Z,3.70
2019-01-17T23:46:20.595Z,3.40
2019-01-17T23:48:24.347Z,3.40
2019-01-17T23:50:28.050Z,3.30
2019-01-17T23:52:31.710Z,3.20
2019-01-17T23:54:35.378Z,3.80
2019-01-17T23:56:39.061Z,4.00
2019-01-17T23:58:42.756Z,4.60
